createdAt,value
2023-03-12T00:00:34.441Z,93.83
2023-03-12T00:01:34.754Z,93.83
2023-03-12T00:02:34.511Z,93.83
2023-03-12T00:03:34.473Z,93.72
2023-03-12T00:04:34.413Z,93.68
2023-03-12T00:05:34.430Z,93.68
2023-03-12T00:06:34.396Z,93.57
2023-03-12T00:07:34.479Z,93.57
2023-03-12T00:08:34.580Z,93.57
2023-03-12T00:09:34.378Z,93.47
2023-03-12T00:10:34.339Z,93.47
2023-03-12T00:11:34.346Z,93.47
2023-03-12T00:12:34.295Z,93.47
2023-03-12T00:13:34.310Z,93.37
2023-03-12T00:14:34.277Z,93.37
2023-03-12T00:15:34.365Z,93.37
2023-03-12T00:16:34.280Z,93.26
2023-03-12T00:17:34.296Z,93.26
2023-03-12T00:18:34.234Z,93.15
2023-03-12T00:19:34.277Z,93.15
2023-03-12T00:20:34.207Z,93.15
2023-03-12T00:21:34.240Z,93.05
2023-03-12T00:22:34.236Z,93.05
2023-03-12T00:23:34.214Z,92.94
2023-03-12T00:24:34.170Z,92.94
2023-03-12T00:25:34.175Z,92.94
2023-03-12T00:26:34.164Z,92.84
2023-03-12T00:27:34.201Z,92.73
2023-03-12T00:28:34.132Z,92.52
2023-03-12T00:29:34.212Z,92.42
2023-03-12T00:30:34.099Z,92.42
2023-03-12T00:31:34.138Z,92.42
2023-03-12T00:32:34.112Z,92.42
2023-03-12T00:33:34.099Z,92.42
2023-03-12T00:34:34.353Z,92.42
2023-03-12T00:35:34.110Z,92.42
2023-03-12T00:36:34.039Z,92.42
2023-03-12T00:37:34.050Z,92.38
2023-03-12T00:38:34.010Z,92.31
2023-03-12T00:39:34.076Z,92.21
2023-03-12T00:40:34.106Z,92.10
2023-03-12T00:41:34.029Z,92.06
2023-03-12T00:42:33.981Z,91.96
2023-03-12T00:43:34.003Z,92.06
2023-03-12T00:44:34.028Z,92.06
2023-03-12T00:45:33.957Z,92.06
2023-03-12T00:46:33.966Z,92.06
2023-03-12T00:47:33.949Z,92.16
2023-03-12T00:48:33.911Z,92.16
2023-03-12T00:49:33.934Z,92.16
2023-03-12T00:50:33.907Z,92.16
2023-03-12T00:51:33.887Z,92.16
2023-03-12T00:52:33.858Z,92.16
2023-03-12T00:53:33.873Z,92.16
2023-03-12T00:54:33.877Z,92.16
2023-03-12T00:55:33.853Z,92.16
2023-03-12T00:56:33.823Z,92.16
2023-03-12T00:57:33.821Z,92.16
2023-03-12T00:58:33.805Z,92.16
2023-03-12T00:59:33.810Z,92.06
2023-03-12T01:00:33.833Z,92.06
2023-03-12T01:01:33.799Z,92.06
2023-03-12T01:02:33.763Z,92.06
2023-03-12T01:03:33.758Z,91.96
2023-03-12T01:04:33.789Z,91.96
2023-03-12T01:05:35.187Z,91.85
2023-03-12T01:06:33.755Z,91.85
2023-03-12T01:07:33.698Z,91.74
2023-03-12T01:08:33.716Z,91.74
2023-03-12T01:09:33.685Z,91.74
2023-03-12T01:10:33.790Z,91.74
2023-03-12T01:11:33.861Z,91.85
2023-03-12T01:12:33.664Z,91.85
2023-03-12T01:13:33.713Z,91.85
2023-03-12T01:14:33.646Z,91.85
2023-03-12T01:15:33.620Z,91.85
2023-03-12T01:16:33.879Z,91.85
2023-03-12T01:17:33.601Z,91.85
2023-03-12T01:18:33.620Z,91.85
2023-03-12T01:19:34.040Z,91.85
2023-03-12T01:20:33.582Z,91.96
2023-03-12T01:21:33.559Z,91.96
2023-03-12T01:22:33.608Z,91.85
2023-03-12T01:23:33.516Z,91.96
2023-03-12T01:24:33.605Z,91.96
2023-03-12T01:25:33.505Z,91.96
2023-03-12T01:26:33.519Z,91.96
2023-03-12T01:27:33.507Z,91.96
2023-03-12T01:28:33.496Z,91.85
2023-03-12T01:29:33.453Z,91.85
2023-03-12T01:30:33.496Z,91.81
2023-03-12T01:31:33.812Z,91.74
2023-03-12T01:32:33.472Z,91.71
2023-03-12T01:33:33.433Z,91.71
2023-03-12T01:34:33.468Z,91.71
2023-03-12T01:35:33.546Z,91.71
2023-03-12T01:36:33.794Z,91.71
2023-03-12T01:37:33.388Z,91.60
2023-03-12T01:38:33.377Z,91.60
2023-03-12T01:39:33.352Z,91.71
2023-03-12T01:40:33.359Z,91.71
2023-03-12T01:41:33.324Z,91.71
2023-03-12T01:42:33.337Z,91.81
2023-03-12T01:43:33.338Z,91.81
2023-03-12T01:44:33.339Z,91.91
2023-03-12T01:45:33.311Z,91.91
2023-03-12T01:46:33.281Z,91.91
2023-03-12T01:47:33.269Z,91.81
2023-03-12T01:48:33.277Z,91.91
2023-03-12T01:49:33.276Z,91.81
2023-03-12T01:50:33.262Z,91.81
2023-03-12T01:51:33.538Z,91.81
2023-03-12T01:52:33.233Z,91.81
2023-03-12T01:53:33.197Z,91.77
2023-03-12T01:54:33.216Z,91.66
2023-03-12T01:55:33.164Z,91.66
2023-03-12T01:56:33.685Z,91.66
2023-03-12T01:57:33.493Z,91.66
2023-03-12T01:58:33.201Z,91.66
2023-03-12T01:59:33.113Z,91.66
2023-03-12T02:00:33.164Z,91.66
2023-03-12T02:01:33.163Z,91.56
2023-03-12T02:02:33.115Z,91.56
2023-03-12T02:03:33.143Z,91.56
2023-03-12T02:04:33.094Z,91.56
2023-03-12T02:05:33.075Z,91.56
2023-03-12T02:06:33.085Z,91.56
2023-03-12T02:07:33.051Z,91.56
2023-03-12T02:08:33.043Z,91.56
2023-03-12T02:09:33.001Z,91.56
2023-03-12T02:10:33.041Z,91.56
2023-03-12T02:11:33.019Z,91.45
2023-03-12T02:12:33.036Z,91.45
2023-03-12T02:13:32.993Z,91.35
2023-03-12T02:14:32.988Z,91.35
2023-03-12T02:15:32.974Z,91.35
2023-03-12T02:16:32.962Z,91.35
2023-03-12T02:17:32.922Z,91.35
2023-03-12T02:18:32.943Z,91.35
2023-03-12T02:19:32.915Z,91.30
2023-03-12T02:20:32.949Z,91.35
2023-03-12T02:21:32.892Z,91.30
2023-03-12T02:22:32.962Z,91.30
2023-03-12T02:23:32.938Z,91.30
2023-03-12T02:24:32.873Z,91.20
2023-03-12T02:25:32.848Z,91.09
2023-03-12T02:26:32.867Z,91.09
2023-03-12T02:27:32.873Z,90.99
2023-03-12T02:28:32.841Z,91.03
2023-03-12T02:29:32.821Z,90.99
2023-03-12T02:30:32.812Z,90.99
2023-03-12T02:31:32.820Z,90.99
2023-03-12T02:32:33.000Z,91.09
2023-03-12T02:33:32.809Z,91.09
2023-03-12T02:34:32.780Z,91.09
2023-03-12T02:35:32.744Z,91.09
2023-03-12T02:36:32.754Z,91.20
2023-03-12T02:37:32.734Z,91.20
2023-03-12T02:38:32.775Z,91.30
2023-03-12T02:39:32.724Z,91.30
2023-03-12T02:40:32.743Z,91.30
2023-03-12T02:41:32.687Z,91.30
2023-03-12T02:42:32.678Z,91.30
2023-03-12T02:43:32.648Z,91.30
2023-03-12T02:44:32.674Z,91.30
2023-03-12T02:45:32.640Z,91.30
2023-03-12T02:46:32.659Z,91.30
2023-03-12T02:47:33.002Z,91.30
2023-03-12T02:48:32.619Z,91.30
2023-03-12T02:49:32.599Z,91.30
2023-03-12T02:50:32.594Z,91.30
2023-03-12T02:51:32.600Z,91.30
2023-03-12T02:52:32.599Z,91.20
2023-03-12T02:53:32.649Z,91.20
2023-03-12T02:54:32.548Z,91.20
2023-03-12T02:55:32.591Z,91.09
2023-03-12T02:56:32.787Z,91.09
2023-03-12T02:57:32.515Z,91.09
2023-03-12T02:58:32.499Z,90.99
2023-03-12T02:59:32.813Z,90.99
2023-03-12T03:00:32.496Z,90.89
2023-03-12T03:01:32.530Z,90.78
2023-03-12T03:02:32.480Z,90.78
2023-03-12T03:03:32.439Z,90.67
2023-03-12T03:04:32.485Z,90.72
2023-03-12T03:05:32.418Z,90.72
2023-03-12T03:06:32.452Z,90.82
2023-03-12T03:07:32.414Z,90.82
2023-03-12T03:08:32.435Z,90.92
2023-03-12T03:09:32.391Z,91.03
2023-03-12T03:10:32.402Z,91.14
2023-03-12T03:11:32.374Z,91.20
2023-03-12T03:12:32.695Z,91.30
2023-03-12T03:13:32.340Z,91.41
2023-03-12T03:14:32.343Z,91.41
2023-03-12T03:15:32.325Z,91.52
2023-03-12T03:16:32.332Z,91.52
2023-03-12T03:17:32.283Z,91.62
2023-03-12T03:18:32.342Z,91.72
2023-03-12T03:19:32.256Z,91.72
2023-03-12T03:20:32.287Z,91.72
2023-03-12T03:21:32.240Z,91.72
2023-03-12T03:22:32.263Z,91.72
2023-03-12T03:23:32.242Z,91.72
2023-03-12T03:24:32.227Z,91.72
2023-03-12T03:25:32.187Z,91.72
2023-03-12T03:26:32.218Z,91.72
2023-03-12T03:27:32.258Z,91.72
2023-03-12T03:28:32.245Z,91.72
2023-03-12T03:29:32.216Z,91.72
2023-03-12T03:30:32.194Z,91.72
2023-03-12T03:31:32.171Z,91.72
2023-03-12T03:32:32.163Z,91.72
2023-03-12T03:33:32.095Z,91.72
2023-03-12T03:34:32.128Z,91.72
2023-03-12T03:35:32.078Z,91.72
2023-03-12T03:36:32.077Z,91.72
2023-03-12T03:37:32.086Z,91.72
2023-03-12T03:38:32.075Z,91.72
2023-03-12T03:39:32.663Z,91.62
2023-03-12T03:40:32.078Z,91.62
2023-03-12T03:41:32.006Z,91.62
2023-03-12T03:42:32.045Z,91.62
2023-03-12T03:43:31.973Z,91.47
2023-03-12T03:44:32.004Z,91.41
2023-03-12T03:45:31.973Z,91.20
2023-03-12T03:46:32.051Z,91.09
2023-03-12T03:47:31.945Z,91.05
2023-03-12T03:48:31.967Z,90.95
2023-03-12T03:49:31.930Z,90.95
2023-03-12T03:50:31.963Z,90.84
2023-03-12T03:51:31.903Z,90.84
2023-03-12T03:52:32.248Z,90.84
2023-03-12T03:53:31.883Z,90.84
2023-03-12T03:54:31.897Z,90.84
2023-03-12T03:55:31.881Z,90.84
2023-03-12T03:56:31.904Z,90.84
2023-03-12T03:57:31.849Z,90.84
2023-03-12T03:58:31.871Z,90.84
2023-03-12T03:59:31.815Z,90.84
2023-03-12T04:00:31.821Z,90.84
2023-03-12T04:01:31.809Z,90.84
2023-03-12T04:02:31.817Z,90.84
2023-03-12T04:03:31.848Z,90.74
2023-03-12T04:04:31.779Z,90.74
2023-03-12T04:05:31.936Z,90.74
2023-03-12T04:06:31.758Z,90.64
2023-03-12T04:07:31.726Z,90.64
2023-03-12T04:08:31.728Z,90.64
2023-03-12T04:09:31.736Z,90.53
2023-03-12T04:10:31.717Z,90.42
2023-03-12T04:11:31.683Z,90.42
2023-03-12T04:12:31.719Z,90.42
2023-03-12T04:13:31.657Z,90.42
2023-03-12T04:14:31.670Z,90.42
2023-03-12T04:15:31.652Z,90.38
2023-03-12T04:16:31.640Z,90.38
2023-03-12T04:17:31.636Z,90.28
2023-03-12T04:18:31.625Z,90.28
2023-03-12T04:19:32.349Z,90.17
2023-03-12T04:20:31.623Z,90.17
2023-03-12T04:21:31.567Z,90.28
2023-03-12T04:22:31.577Z,90.28
2023-03-12T04:23:31.602Z,90.17
2023-03-12T04:24:31.566Z,90.07
2023-03-12T04:25:31.524Z,89.86
2023-03-12T04:26:31.573Z,89.86
2023-03-12T04:27:31.509Z,89.86
2023-03-12T04:28:31.515Z,89.79
2023-03-12T04:29:31.505Z,89.79
2023-03-12T04:30:31.503Z,89.79
2023-03-12T04:31:31.540Z,89.90
2023-03-12T04:32:32.074Z,89.90
2023-03-12T04:33:31.444Z,89.79
2023-03-12T04:34:31.473Z,89.90
2023-03-12T04:35:31.464Z,89.90
2023-03-12T04:36:31.439Z,89.90
2023-03-12T04:37:31.416Z,89.90
2023-03-12T04:38:31.404Z,90.00
2023-03-12T04:39:31.379Z,90.11
2023-03-12T04:40:31.413Z,90.11
2023-03-12T04:41:31.450Z,90.11
2023-03-12T04:42:31.401Z,90.22
2023-03-12T04:43:31.333Z,90.22
2023-03-12T04:44:31.376Z,90.22
2023-03-12T04:45:31.333Z,90.22
2023-03-12T04:46:31.347Z,90.11
2023-03-12T04:47:31.344Z,90.11
2023-03-12T04:48:31.324Z,90.11
2023-03-12T04:49:31.284Z,90.11
2023-03-12T04:50:31.305Z,90.00
2023-03-12T04:51:31.285Z,90.00
2023-03-12T04:52:31.303Z,89.90
2023-03-12T04:53:31.350Z,89.90
2023-03-12T04:54:31.692Z,90.00
2023-03-12T04:55:31.203Z,90.00
2023-03-12T04:56:31.234Z,90.11
2023-03-12T04:57:31.201Z,90.22
2023-03-12T04:58:31.228Z,90.17
2023-03-12T04:59:31.159Z,90.28
2023-03-12T05:00:31.183Z,90.28
2023-03-12T05:01:31.161Z,90.38
2023-03-12T05:02:31.211Z,90.49
2023-03-12T05:03:31.151Z,90.49
2023-03-12T05:04:33.538Z,90.49
2023-03-12T05:05:31.110Z,90.38
2023-03-12T05:06:31.114Z,90.38
2023-03-12T05:07:31.125Z,90.38
2023-03-12T05:08:31.127Z,90.28
2023-03-12T05:09:31.061Z,90.28
2023-03-12T05:10:31.084Z,90.28
2023-03-12T05:11:31.028Z,90.17
2023-03-12T05:12:31.068Z,90.22
2023-03-12T05:13:31.589Z,90.32
2023-03-12T05:14:31.396Z,90.32
2023-03-12T05:15:30.987Z,90.32
2023-03-12T05:16:31.069Z,90.32
2023-03-12T05:17:30.968Z,90.42
2023-03-12T05:18:30.976Z,90.42
2023-03-12T05:19:31.000Z,90.53
2023-03-12T05:20:31.219Z,90.53
2023-03-12T05:21:30.950Z,90.64
2023-03-12T05:22:30.928Z,90.64
2023-03-12T05:23:30.908Z,90.59
2023-03-12T05:24:30.871Z,90.59
2023-03-12T05:25:30.906Z,90.59
2023-03-12T05:26:30.880Z,90.59
2023-03-12T05:27:31.951Z,90.70
2023-03-12T05:28:30.852Z,90.59
2023-03-12T05:29:30.894Z,90.59
2023-03-12T05:30:30.831Z,90.59
2023-03-12T05:31:30.883Z,90.59
2023-03-12T05:32:30.846Z,90.59
2023-03-12T05:33:30.821Z,90.59
2023-03-12T05:34:30.782Z,90.70
2023-03-12T05:35:30.820Z,90.59
2023-03-12T05:36:30.767Z,90.59
2023-03-12T05:37:30.776Z,90.49
2023-03-12T05:38:30.755Z,90.49
2023-03-12T05:39:30.749Z,90.59
2023-03-12T05:40:30.702Z,90.59
2023-03-12T05:41:30.807Z,90.59
2023-03-12T05:42:30.701Z,90.59
2023-03-12T05:43:30.692Z,90.59
2023-03-12T05:44:30.681Z,90.59
2023-03-12T05:45:30.724Z,90.59
2023-03-12T05:46:30.646Z,90.70
2023-03-12T05:47:30.683Z,90.80
2023-03-12T05:48:30.633Z,90.76
2023-03-12T05:49:30.639Z,90.87
2023-03-12T05:50:30.634Z,90.87
2023-03-12T05:51:30.609Z,90.87
2023-03-12T05:52:30.600Z,90.76
2023-03-12T05:53:30.600Z,90.76
2023-03-12T05:54:30.568Z,90.66
2023-03-12T05:55:30.575Z,90.66
2023-03-12T05:56:30.541Z,90.55
2023-03-12T05:57:30.547Z,90.55
2023-03-12T05:58:30.525Z,90.55
2023-03-12T05:59:30.535Z,90.45
2023-03-12T06:00:30.501Z,90.45
2023-03-12T06:01:30.514Z,90.45
2023-03-12T06:02:30.830Z,90.34
2023-03-12T06:03:30.642Z,90.20
2023-03-12T06:04:30.454Z,90.09
2023-03-12T06:05:30.476Z,90.09
2023-03-12T06:06:30.437Z,89.98
2023-03-12T06:07:30.435Z,89.88
2023-03-12T06:08:30.402Z,89.78
2023-03-12T06:09:30.431Z,89.78
2023-03-12T06:10:30.400Z,89.67
2023-03-12T06:11:30.399Z,89.47
2023-03-12T06:12:30.375Z,89.25
2023-03-12T06:13:30.560Z,88.94
2023-03-12T06:14:30.359Z,88.84
2023-03-12T06:15:30.362Z,88.62
2023-03-12T06:16:30.370Z,88.31
2023-03-12T06:17:30.332Z,87.79
2023-03-12T06:18:30.299Z,87.47
2023-03-12T06:19:30.300Z,87.23
2023-03-12T06:20:30.304Z,87.01
2023-03-12T06:21:30.832Z,87.01
2023-03-12T06:22:30.410Z,87.12
2023-03-12T06:23:30.259Z,87.43
2023-03-12T06:24:30.238Z,87.64
2023-03-12T06:25:30.245Z,87.54
2023-03-12T06:26:30.215Z,87.43
2023-03-12T06:27:30.263Z,87.18
2023-03-12T06:28:30.194Z,86.87
2023-03-12T06:29:30.196Z,86.45
2023-03-12T06:30:30.151Z,86.14
2023-03-12T06:31:30.206Z,86.14
2023-03-12T06:32:30.213Z,86.14
2023-03-12T06:33:30.146Z,86.20
2023-03-12T06:34:30.120Z,86.10
2023-03-12T06:35:30.239Z,86.10
2023-03-12T06:36:30.099Z,86.10
2023-03-12T06:37:30.106Z,86.10
2023-03-12T06:38:30.078Z,85.78
2023-03-12T06:39:30.088Z,85.68
2023-03-12T06:40:30.054Z,85.58
2023-03-12T06:41:30.066Z,85.78
2023-03-12T06:42:30.054Z,85.89
2023-03-12T06:43:30.665Z,86.10
2023-03-12T06:44:30.036Z,85.99
2023-03-12T06:45:30.036Z,86.06
2023-03-12T06:46:30.062Z,86.27
2023-03-12T06:47:29.984Z,86.37
2023-03-12T06:48:29.999Z,86.58
2023-03-12T06:49:29.987Z,86.58
2023-03-12T06:50:29.943Z,86.69
2023-03-12T06:51:29.980Z,86.79
2023-03-12T06:52:29.914Z,86.90
2023-03-12T06:53:29.924Z,87.00
2023-03-12T06:54:29.908Z,87.10
2023-03-12T06:55:29.922Z,87.21
2023-03-12T06:56:29.903Z,87.31
2023-03-12T06:57:29.882Z,87.42
2023-03-12T06:58:29.851Z,87.63
2023-03-12T06:59:29.896Z,87.80
2023-03-12T07:00:29.836Z,87.80
2023-03-12T07:01:29.853Z,87.90
2023-03-12T07:02:29.839Z,88.01
2023-03-12T07:03:29.825Z,88.01
2023-03-12T07:04:29.810Z,88.01
2023-03-12T07:05:30.223Z,88.11
2023-03-12T07:06:29.774Z,88.21
2023-03-12T07:07:29.778Z,88.32
2023-03-12T07:08:29.742Z,88.42
2023-03-12T07:09:29.769Z,88.53
2023-03-12T07:10:29.736Z,88.64
2023-03-12T07:11:29.767Z,88.64
2023-03-12T07:12:29.725Z,88.64
2023-03-12T07:13:29.720Z,88.64
2023-03-12T07:14:29.681Z,88.84
2023-03-12T07:15:29.700Z,88.95
2023-03-12T07:16:30.046Z,89.05
2023-03-12T07:17:29.668Z,89.15
2023-03-12T07:18:29.629Z,89.26
2023-03-12T07:19:29.668Z,89.36
2023-03-12T07:20:29.615Z,89.36
2023-03-12T07:21:29.627Z,89.47
2023-03-12T07:22:29.614Z,89.58
2023-03-12T07:23:29.609Z,89.58
2023-03-12T07:24:29.728Z,89.58
2023-03-12T07:25:29.678Z,89.68
2023-03-12T07:26:29.966Z,89.68
2023-03-12T07:27:29.568Z,89.68
2023-03-12T07:28:29.547Z,89.78
2023-03-12T07:29:29.536Z,89.78
2023-03-12T07:30:29.510Z,89.78
2023-03-12T07:31:29.565Z,89.78
2023-03-12T07:32:29.524Z,89.68
2023-03-12T07:33:29.672Z,89.58
2023-03-12T07:34:29.565Z,89.53
2023-03-12T07:35:29.598Z,89.64
2023-03-12T07:36:29.549Z,89.64
2023-03-12T07:37:29.466Z,89.53
2023-03-12T07:38:29.479Z,89.53
2023-03-12T07:39:29.443Z,89.43
2023-03-12T07:40:29.423Z,89.43
2023-03-12T07:41:29.510Z,89.43
2023-03-12T07:42:29.449Z,89.43
2023-03-12T07:43:29.472Z,89.28
2023-03-12T07:44:29.453Z,89.28
2023-03-12T07:45:29.401Z,89.18
2023-03-12T07:46:29.362Z,88.97
2023-03-12T07:47:29.568Z,88.87
2023-03-12T07:48:29.307Z,88.87
2023-03-12T07:49:29.330Z,88.87
2023-03-12T07:50:29.446Z,88.76
2023-03-12T07:51:29.323Z,88.76
2023-03-12T07:52:29.349Z,88.65
2023-03-12T07:53:29.259Z,88.65
2023-03-12T07:54:29.282Z,88.65
2023-03-12T07:55:29.245Z,88.65
2023-03-12T07:56:29.240Z,88.65
2023-03-12T07:57:29.245Z,88.72
2023-03-12T07:58:29.278Z,88.72
2023-03-12T07:59:29.195Z,88.62
2023-03-12T08:00:29.316Z,88.51
2023-03-12T08:01:29.218Z,88.30
2023-03-12T08:02:29.242Z,88.30
2023-03-12T08:03:29.373Z,88.30
2023-03-12T08:04:29.249Z,88.30
2023-03-12T08:05:29.201Z,88.20
2023-03-12T08:06:29.119Z,88.20
2023-03-12T08:07:29.163Z,88.09
2023-03-12T08:08:29.148Z,88.20
2023-03-12T08:09:29.099Z,88.30
2023-03-12T08:10:29.190Z,88.30
2023-03-12T08:11:29.098Z,88.51
2023-03-12T08:12:29.162Z,88.51
2023-03-12T08:13:29.146Z,88.62
2023-03-12T08:14:29.032Z,88.62
2023-03-12T08:15:29.034Z,88.62
2023-03-12T08:16:29.004Z,88.62
2023-03-12T08:17:29.071Z,88.62
2023-03-12T08:18:28.974Z,88.51
2023-03-12T08:19:29.000Z,88.51
2023-03-12T08:20:29.020Z,88.41
2023-03-12T08:21:28.958Z,88.41
2023-03-12T08:22:28.980Z,88.41
2023-03-12T08:23:28.944Z,88.51
2023-03-12T08:24:28.911Z,88.51
2023-03-12T08:25:29.133Z,88.62
2023-03-12T08:26:28.892Z,88.62
2023-03-12T08:27:28.895Z,88.62
2023-03-12T08:28:28.892Z,88.47
2023-03-12T08:29:28.884Z,88.57
2023-03-12T08:30:30.291Z,88.68
2023-03-12T08:31:28.897Z,88.68
2023-03-12T08:32:28.933Z,88.68
2023-03-12T08:33:28.878Z,88.68
2023-03-12T08:34:28.791Z,88.64
2023-03-12T08:35:28.907Z,88.53
2023-03-12T08:36:28.763Z,88.43
2023-03-12T08:37:28.796Z,88.22
2023-03-12T08:38:28.760Z,88.12
2023-03-12T08:39:28.757Z,88.12
2023-03-12T08:40:28.851Z,88.22
2023-03-12T08:41:28.759Z,88.12
2023-03-12T08:42:28.694Z,88.12
2023-03-12T08:43:29.538Z,88.22
2023-03-12T08:44:28.877Z,88.12
2023-03-12T08:45:28.879Z,88.22
2023-03-12T08:46:28.652Z,88.12
2023-03-12T08:47:28.670Z,88.12
2023-03-12T08:48:28.652Z,88.22
2023-03-12T08:49:28.717Z,88.22
2023-03-12T08:50:28.676Z,88.22
2023-03-12T08:51:28.631Z,88.32
2023-03-12T08:52:28.584Z,88.43
2023-03-12T08:53:28.614Z,88.53
2023-03-12T08:54:28.576Z,88.64
2023-03-12T08:55:28.596Z,88.64
2023-03-12T08:56:28.576Z,88.64
2023-03-12T08:57:28.554Z,88.53
2023-03-12T08:58:28.625Z,88.64
2023-03-12T08:59:28.541Z,88.75
2023-03-12T09:00:28.508Z,88.75
2023-03-12T09:01:29.565Z,88.85
2023-03-12T09:02:28.521Z,88.95
2023-03-12T09:03:28.600Z,88.95
2023-03-12T09:04:28.844Z,88.81
2023-03-12T09:05:28.475Z,88.81
2023-03-12T09:06:28.518Z,88.91
2023-03-12T09:07:28.477Z,88.81
2023-03-12T09:08:28.419Z,88.91
2023-03-12T09:09:28.425Z,89.01
2023-03-12T09:10:30.969Z,89.12
2023-03-12T09:11:28.410Z,89.22
2023-03-12T09:12:28.391Z,89.12
2023-03-12T09:13:45.247Z,89.01
2023-03-12T09:15:01.596Z,88.87
2023-03-12T09:15:29.372Z,88.98
2023-03-12T09:16:28.371Z,89.18
2023-03-12T09:17:28.346Z,89.39
2023-03-12T09:18:28.296Z,89.60
2023-03-12T09:19:28.593Z,89.91
2023-03-12T09:20:28.288Z,90.01
2023-03-12T09:21:28.291Z,89.87
2023-03-12T09:22:28.286Z,89.76
2023-03-12T09:23:28.293Z,89.76
2023-03-12T09:24:28.269Z,89.66
2023-03-12T09:25:28.239Z,89.45
2023-03-12T09:26:28.833Z,89.35
2023-03-12T09:27:28.238Z,89.45
2023-03-12T09:28:28.228Z,89.56
2023-03-12T09:29:28.346Z,89.66
2023-03-12T09:30:28.298Z,89.87
2023-03-12T09:31:28.165Z,90.08
2023-03-12T09:32:28.170Z,90.08
2023-03-12T09:33:28.491Z,90.04
2023-03-12T09:34:28.173Z,90.14
2023-03-12T09:35:28.122Z,90.14
2023-03-12T09:36:28.152Z,90.14
2023-03-12T09:37:28.098Z,90.00
2023-03-12T09:38:28.108Z,89.79
2023-03-12T09:39:28.423Z,89.69
2023-03-12T09:40:28.074Z,89.69
2023-03-12T09:41:28.048Z,89.69
2023-03-12T09:42:28.047Z,89.58
2023-03-12T09:43:28.017Z,89.12
2023-03-12T09:44:28.061Z,88.92
2023-03-12T09:45:28.003Z,88.92
2023-03-12T09:46:28.058Z,88.92
2023-03-12T09:47:27.973Z,88.87
2023-03-12T09:48:27.999Z,88.87
2023-03-12T09:49:27.943Z,88.73
2023-03-12T09:50:28.048Z,88.62
2023-03-12T09:51:27.923Z,88.31
2023-03-12T09:52:27.939Z,87.90
2023-03-12T09:53:27.919Z,87.79
2023-03-12T09:54:27.931Z,87.69
2023-03-12T09:55:27.901Z,87.45
2023-03-12T09:56:27.914Z,87.34
2023-03-12T09:57:27.871Z,87.13
2023-03-12T09:58:27.873Z,86.82
2023-03-12T09:59:27.858Z,86.72
2023-03-12T10:00:27.887Z,86.82
2023-03-12T10:01:28.352Z,86.93
2023-03-12T10:02:27.851Z,87.03
2023-03-12T10:03:27.845Z,87.03
2023-03-12T10:04:27.831Z,87.13
2023-03-12T10:05:27.946Z,87.13
2023-03-12T10:06:27.800Z,86.93
2023-03-12T10:07:27.999Z,87.03
2023-03-12T10:08:28.877Z,87.19
2023-03-12T10:09:27.747Z,87.30
2023-03-12T10:10:27.753Z,87.30
2023-03-12T10:11:27.722Z,86.99
2023-03-12T10:12:27.777Z,86.68
2023-03-12T10:13:27.699Z,86.68
2023-03-12T10:14:27.714Z,86.57
2023-03-12T10:15:27.718Z,86.78
2023-03-12T10:16:27.691Z,86.78
2023-03-12T10:17:27.643Z,86.93
2023-03-12T10:18:27.789Z,87.03
2023-03-12T10:19:27.663Z,87.19
2023-03-12T10:20:27.772Z,87.30
2023-03-12T10:21:27.612Z,87.40
2023-03-12T10:22:27.617Z,87.40
2023-03-12T10:23:27.584Z,86.99
2023-03-12T10:24:27.592Z,86.99
2023-03-12T10:25:27.603Z,87.19
2023-03-12T10:26:27.612Z,87.09
2023-03-12T10:27:27.812Z,87.16
2023-03-12T10:28:27.834Z,87.47
2023-03-12T10:29:27.518Z,86.95
2023-03-12T10:30:27.592Z,86.95
2023-03-12T10:31:27.514Z,87.16
2023-03-12T10:32:27.548Z,87.37
2023-03-12T10:33:27.493Z,87.47
2023-03-12T10:34:27.532Z,87.68
2023-03-12T10:35:27.467Z,87.78
2023-03-12T10:36:27.457Z,87.88
2023-03-12T10:37:27.435Z,87.57
2023-03-12T10:38:27.462Z,87.47
2023-03-12T10:39:27.415Z,87.47
2023-03-12T10:40:27.449Z,87.53
2023-03-12T10:41:27.428Z,87.53
2023-03-12T10:42:27.408Z,87.53
2023-03-12T10:43:27.404Z,87.63
2023-03-12T10:44:27.399Z,87.49
2023-03-12T10:45:27.348Z,87.28
2023-03-12T10:46:27.380Z,86.76
2023-03-12T10:47:27.320Z,86.25
2023-03-12T10:48:27.351Z,86.04
2023-03-12T10:49:27.300Z,86.15
2023-03-12T10:50:27.351Z,86.15
2023-03-12T10:51:27.271Z,86.18
2023-03-12T10:52:27.288Z,86.35
2023-03-12T10:53:29.653Z,86.76
2023-03-12T10:54:27.263Z,87.07
2023-03-12T10:55:27.232Z,87.28
2023-03-12T10:56:27.261Z,87.38
2023-03-12T10:57:27.218Z,87.24
2023-03-12T10:58:27.219Z,87.04
2023-03-12T10:59:27.217Z,86.83
2023-03-12T11:00:27.202Z,86.25
2023-03-12T11:01:27.190Z,86.55
2023-03-12T11:02:27.167Z,86.83
2023-03-12T11:03:27.170Z,87.28
2023-03-12T11:04:29.955Z,87.59
2023-03-12T11:05:27.108Z,87.70
2023-03-12T11:06:27.131Z,87.70
2023-03-12T11:07:27.107Z,87.90
2023-03-12T11:08:27.226Z,87.90
2023-03-12T11:09:27.176Z,87.90
2023-03-12T11:10:27.137Z,87.80
2023-03-12T11:11:27.037Z,87.70
2023-03-12T11:12:27.046Z,87.90
2023-03-12T11:13:27.033Z,88.01
2023-03-12T11:14:27.068Z,88.11
2023-03-12T11:15:27.089Z,88.05
2023-03-12T11:16:27.179Z,88.46
2023-03-12T11:17:26.968Z,88.78
2023-03-12T11:18:27.016Z,88.57
2023-03-12T11:19:26.974Z,88.26
2023-03-12T11:20:26.981Z,88.36
2023-03-12T11:21:26.941Z,88.46
2023-03-12T11:22:26.956Z,88.57
2023-03-12T11:23:26.953Z,88.73
2023-03-12T11:24:26.935Z,88.94
2023-03-12T11:25:26.921Z,89.15
2023-03-12T11:26:26.917Z,89.04
2023-03-12T11:27:26.853Z,88.79
2023-03-12T11:28:26.911Z,88.48
2023-03-12T11:29:27.001Z,88.39
2023-03-12T11:30:26.940Z,88.48
2023-03-12T11:31:26.847Z,88.59
2023-03-12T11:32:26.831Z,88.59
2023-03-12T11:33:26.794Z,88.34
2023-03-12T11:34:26.795Z,88.13
2023-03-12T11:35:26.850Z,88.13
2023-03-12T11:36:26.809Z,87.93
2023-03-12T11:37:26.748Z,87.82
2023-03-12T11:38:26.753Z,87.82
2023-03-12T11:39:26.769Z,87.68
2023-03-12T11:40:26.762Z,87.51
2023-03-12T11:41:26.715Z,87.57
2023-03-12T11:42:26.740Z,87.57
2023-03-12T11:43:41.994Z,87.78
2023-03-12T11:44:27.674Z,87.88
2023-03-12T11:45:26.658Z,87.88
2023-03-12T11:46:26.711Z,88.09
2023-03-12T11:47:26.692Z,88.20
2023-03-12T11:48:26.693Z,88.20
2023-03-12T11:49:26.661Z,87.99
2023-03-12T11:50:26.615Z,87.78
2023-03-12T11:51:26.592Z,87.88
2023-03-12T11:52:26.610Z,87.68
2023-03-12T11:53:26.576Z,87.57
2023-03-12T11:54:26.886Z,87.57
2023-03-12T11:55:26.524Z,87.74
2023-03-12T11:56:26.556Z,87.57
2023-03-12T11:57:26.556Z,87.68
2023-03-12T11:58:27.482Z,87.99
2023-03-12T11:59:30.251Z,88.09
2023-03-12T12:00:26.775Z,88.40
2023-03-12T12:01:26.801Z,88.51
2023-03-12T12:02:26.896Z,88.61
2023-03-12T12:03:26.867Z,88.61
2023-03-12T12:04:26.547Z,88.71
2023-03-12T12:05:26.457Z,88.71
2023-03-12T12:06:26.433Z,88.82
2023-03-12T12:07:26.422Z,88.61
2023-03-12T12:08:26.426Z,88.61
2023-03-12T12:09:26.400Z,88.92
2023-03-12T12:10:27.896Z,89.13
2023-03-12T12:11:26.384Z,89.23
2023-03-12T12:12:26.405Z,89.23
2023-03-12T12:13:26.394Z,89.44
2023-03-12T12:14:26.365Z,89.65
2023-03-12T12:15:26.335Z,89.75
2023-03-12T12:16:26.438Z,89.75
2023-03-12T12:17:26.322Z,89.86
2023-03-12T12:18:26.329Z,89.86
2023-03-12T12:19:26.266Z,89.75
2023-03-12T12:20:26.466Z,89.75
2023-03-12T12:21:26.404Z,89.86
2023-03-12T12:22:26.470Z,89.86
2023-03-12T12:23:26.260Z,89.86
2023-03-12T12:24:26.265Z,89.96
2023-03-12T12:25:26.259Z,89.96
2023-03-12T12:26:27.082Z,90.16
2023-03-12T12:27:26.206Z,90.16
2023-03-12T12:28:26.241Z,90.12
2023-03-12T12:29:26.209Z,90.06
2023-03-12T12:30:26.214Z,90.06
2023-03-12T12:31:26.475Z,90.16
2023-03-12T12:32:26.208Z,90.37
2023-03-12T12:33:26.164Z,90.58
2023-03-12T12:34:26.372Z,90.68
2023-03-12T12:35:26.762Z,90.78
2023-03-12T12:36:26.265Z,90.78
2023-03-12T12:37:26.365Z,90.78
2023-03-12T12:38:26.151Z,90.78
2023-03-12T12:39:26.172Z,90.68
2023-03-12T12:40:26.509Z,90.78
2023-03-12T12:41:26.038Z,90.78
2023-03-12T12:42:26.183Z,90.78
2023-03-12T12:43:26.036Z,90.68
2023-03-12T12:44:26.108Z,90.68
2023-03-12T12:45:26.210Z,90.78
2023-03-12T12:46:26.150Z,90.99
2023-03-12T12:47:25.961Z,90.99
2023-03-12T12:48:25.970Z,90.99
2023-03-12T12:49:25.930Z,90.84
2023-03-12T12:50:25.943Z,90.95
2023-03-12T12:51:25.902Z,90.95
2023-03-12T12:52:25.910Z,91.05